createdAt,value
2022-08-21T00:02:20.632Z,92123.69
2022-08-21T00:04:57.328Z,92117.47
2022-08-21T00:07:25.318Z,92113.97
2022-08-21T00:09:52.578Z,92115.41
2022-08-21T00:12:19.548Z,92106.88
2022-08-21T00:14:46.110Z,92106.88
2022-08-21T00:17:13.431Z,92104.09
2022-08-21T00:19:40.238Z,92101.28
2022-08-21T00:22:06.809Z,92095.69
2022-08-21T00:24:33.385Z,92098.50
2022-08-21T00:27:00.046Z,92098.50
2022-08-21T00:29:26.738Z,92099.09
2022-08-21T00:31:54.437Z,92104.09
2022-08-21T00:34:21.042Z,92104.09
2022-08-21T00:36:47.770Z,92101.28
2022-08-21T00:39:14.420Z,92106.88
2022-08-21T00:41:41.547Z,92102.66
2022-08-21T00:44:10.934Z,92100.56
2022-08-21T00:46:38.757Z,92102.66
2022-08-21T00:49:07.494Z,92098.38
2022-08-21T00:51:40.882Z,92099.09
2022-08-21T00:54:18.302Z,92099.09
2022-08-21T00:56:51.270Z,92098.38
2022-08-21T00:59:20.415Z,92099.09
2022-08-21T01:01:47.839Z,92092.78
2022-08-21T01:04:14.800Z,92104.72
2022-08-21T01:06:41.376Z,92101.91
2022-08-21T01:09:07.928Z,92103.97
2022-08-21T01:11:34.527Z,92103.97
2022-08-21T01:14:01.408Z,92100.47
2022-08-21T01:16:28.165Z,92095.56
2022-08-21T01:18:54.821Z,92097.66
2022-08-21T01:21:28.276Z,92108.88
2022-08-21T01:23:57.211Z,92105.31
2022-08-21T01:26:33.887Z,92108.88
2022-08-21T01:29:23.521Z,92108.13
2022-08-21T01:31:51.042Z,92119.31
2022-08-21T01:34:18.230Z,92122.84
2022-08-21T01:36:45.570Z,92119.31
2022-08-21T01:39:13.143Z,92113.72
2022-08-21T01:41:40.118Z,92111.66
2022-08-21T01:44:06.995Z,92109.44
2022-08-21T01:46:33.908Z,92115.03
2022-08-21T01:49:00.735Z,92119.31
2022-08-21T01:51:27.364Z,92123.44
2022-08-21T01:53:53.894Z,92110.81
2022-08-21T01:56:20.550Z,92109.44
2022-08-21T01:58:48.172Z,92112.25
2022-08-21T02:01:15.115Z,92105.22
2022-08-21T02:03:42.415Z,92104.59
2022-08-21T02:06:12.970Z,92104.59
2022-08-21T02:08:39.643Z,92095.44
2022-08-21T02:11:06.439Z,92098.16
2022-08-21T02:13:32.983Z,92101.06
2022-08-21T02:15:59.572Z,92094.00
2022-08-21T02:18:26.151Z,92094.00
2022-08-21T02:20:55.279Z,92089.84
2022-08-21T02:23:26.749Z,92092.56
2022-08-21T02:26:05.117Z,92080.63
2022-08-21T02:28:32.299Z,92082.06
2022-08-21T02:30:59.311Z,92086.97
2022-08-21T02:33:27.188Z,92078.56
2022-08-21T02:35:54.900Z,92089.75
2022-08-21T02:38:24.552Z,92078.56
2022-08-21T02:40:52.635Z,92082.81
2022-08-21T02:43:21.583Z,92077.22
2022-08-21T02:45:49.438Z,92075.75
2022-08-21T02:48:19.507Z,92075.75
2022-08-21T02:50:55.134Z,92070.16
2022-08-21T02:53:21.819Z,92075.75
2022-08-21T02:55:50.382Z,92075.75
2022-08-21T02:58:24.729Z,92070.16
2022-08-21T03:00:52.267Z,92074.28
2022-08-21T03:03:22.106Z,92081.38
2022-08-21T03:05:49.554Z,92074.28
2022-08-21T03:08:16.498Z,92074.28
2022-08-21T03:10:51.459Z,92071.50
2022-08-21T03:13:18.759Z,92072.84
2022-08-21T03:15:45.207Z,92074.28
2022-08-21T03:18:12.807Z,92074.28
2022-08-21T03:20:41.773Z,92079.88
2022-08-21T03:23:12.505Z,92084.75
2022-08-21T03:25:41.495Z,92084.03
2022-08-21T03:28:15.021Z,92089.66
2022-08-21T03:30:43.063Z,92090.34
2022-08-21T03:33:12.174Z,92091.09
2022-08-21T03:35:39.991Z,92084.03
2022-08-21T03:38:06.538Z,92084.03
2022-08-21T03:40:33.097Z,92086.84
2022-08-21T03:42:59.935Z,92076.97
2022-08-21T03:45:26.696Z,92078.31
2022-08-21T03:47:53.461Z,92078.44
2022-08-21T03:50:20.308Z,92076.97
2022-08-21T03:52:46.878Z,92071.38
2022-08-21T03:55:13.422Z,92071.38
2022-08-21T03:57:39.990Z,92071.38
2022-08-21T04:00:09.953Z,92065.78
2022-08-21T04:02:36.841Z,92066.50
2022-08-21T04:05:04.202Z,92070.03
2022-08-21T04:07:30.767Z,92063.72
2022-08-21T04:09:57.311Z,92070.63
2022-08-21T04:12:24.575Z,92076.97
2022-08-21T04:14:52.327Z,92065.78
2022-08-21T04:17:19.267Z,92076.22
2022-08-21T04:19:49.399Z,92076.22
2022-08-21T04:22:19.768Z,92070.63
2022-08-21T04:24:46.334Z,92081.13
2022-08-21T04:27:12.919Z,92080.38
2022-08-21T04:29:40.134Z,92079.66
2022-08-21T04:32:07.254Z,92076.84
2022-08-21T04:34:33.811Z,92083.19
2022-08-21T04:37:00.364Z,92079.66
2022-08-21T04:39:29.501Z,92085.25
2022-08-21T04:41:56.786Z,92093.66
2022-08-21T04:44:23.369Z,92095.72
2022-08-21T04:46:49.911Z,92096.44
2022-08-21T04:49:16.439Z,92096.44
2022-08-21T04:51:43.130Z,92096.44
2022-08-21T04:54:14.974Z,92110.44
2022-08-21T04:56:56.865Z,92096.44
2022-08-21T04:59:28.875Z,92096.44
2022-08-21T05:01:57.517Z,92108.38
2022-08-21T05:04:27.719Z,92108.38
2022-08-21T05:06:57.991Z,92104.13
2022-08-21T05:09:25.534Z,92104.13
2022-08-21T05:11:53.710Z,92107.63
2022-08-21T05:14:20.544Z,92106.19
2022-08-21T05:16:48.266Z,92102.03
2022-08-21T05:19:15.342Z,92103.28
2022-08-21T05:21:44.333Z,92111.78
2022-08-21T05:24:12.443Z,92111.78
2022-08-21T05:26:45.424Z,92111.06
2022-08-21T05:29:14.992Z,92117.41
2022-08-21T05:31:41.734Z,92110.31
2022-08-21T05:34:09.103Z,92109.63
2022-08-21T05:36:36.860Z,92115.91
2022-08-21T05:39:04.404Z,92104.72
2022-08-21T05:41:31.093Z,92119.44
2022-08-21T05:44:00.816Z,92108.88
2022-08-21T05:46:27.671Z,92114.47
2022-08-21T05:48:54.224Z,92114.47
2022-08-21T05:51:20.779Z,92114.47
2022-08-21T05:53:47.330Z,92114.47
2022-08-21T05:56:15.149Z,92113.03
2022-08-21T05:58:41.742Z,92114.47
2022-08-21T06:01:09.968Z,92120.06
2022-08-21T06:03:39.621Z,92119.34
2022-08-21T06:06:06.428Z,92114.47
2022-08-21T06:08:33.428Z,92111.66
2022-08-21T06:11:01.195Z,92115.81
2022-08-21T06:13:28.846Z,92112.28
2022-08-21T06:16:16.755Z,92113.72
2022-08-21T06:18:44.534Z,92104.63
2022-08-21T06:21:12.479Z,92101.84
2022-08-21T06:23:39.039Z,92096.22
2022-08-21T06:26:08.053Z,92097.69
2022-08-21T06:28:36.066Z,92090.63
2022-08-21T06:31:02.650Z,92096.22
2022-08-21T06:33:32.465Z,92089.16
2022-08-21T06:35:59.296Z,92085.03
2022-08-21T06:38:25.799Z,92085.03
2022-08-21T06:40:53.079Z,92085.03
2022-08-21T06:43:19.886Z,92087.94
2022-08-21T06:45:46.530Z,92079.44
2022-08-21T06:48:17.052Z,92087.84
2022-08-21T06:50:46.244Z,92085.13
2022-08-21T06:53:15.095Z,92073.22
2022-08-21T06:55:43.032Z,92072.59
2022-08-21T06:58:10.350Z,92069.81
2022-08-21T07:00:41.048Z,92069.81
2022-08-21T07:03:07.684Z,92070.53
2022-08-21T07:05:34.300Z,92066.38
2022-08-21T07:08:00.825Z,92061.41
2022-08-21T07:10:28.101Z,92062.84
2022-08-21T07:13:00.384Z,92064.31
2022-08-21T07:15:30.580Z,92058.72
2022-08-21T07:17:58.487Z,92054.56
2022-08-21T07:20:25.161Z,92048.97
2022-08-21T07:22:52.085Z,92057.38
2022-08-21T07:25:18.708Z,92047.53
2022-08-21T07:27:45.252Z,92054.56
2022-08-21T07:30:12.060Z,92048.97
2022-08-21T07:32:38.638Z,92042.66
2022-08-21T07:35:05.631Z,92037.78
2022-08-21T07:37:32.172Z,92037.78
2022-08-21T07:39:58.749Z,92032.19
2022-08-21T07:42:25.381Z,92030.84
2022-08-21T07:44:52.028Z,92032.31
2022-08-21T07:47:29.500Z,92025.38
2022-08-21T07:50:09.191Z,92019.78
2022-08-21T07:52:35.646Z,92003.69
2022-08-21T07:55:06.000Z,92010.03
2022-08-21T07:57:33.783Z,91998.81
2022-08-21T08:00:00.502Z,91998.81
2022-08-21T08:02:30.066Z,91983.47
2022-08-21T08:05:02.038Z,91992.59
2022-08-21T08:07:28.577Z,91983.47
2022-08-21T08:09:55.211Z,91976.44
2022-08-21T08:12:22.159Z,91983.47
2022-08-21T08:14:49.503Z,91972.91
2022-08-21T08:17:16.063Z,91965.22
2022-08-21T08:19:42.599Z,91962.44
2022-08-21T08:22:20.428Z,91963.88
2022-08-21T08:24:48.243Z,91956.22
2022-08-21T08:27:15.552Z,91952.09
2022-08-21T08:29:42.094Z,91941.72
2022-08-21T08:32:08.682Z,91944.50
2022-08-21T08:34:37.015Z,91945.97
2022-08-21T08:37:04.791Z,91939.66
2022-08-21T08:39:33.834Z,91931.88
2022-08-21T08:42:32.243Z,91929.06
2022-08-21T08:45:18.018Z,91924.91
2022-08-21T08:47:50.185Z,91922.13
2022-08-21T08:50:22.781Z,91916.50
2022-08-21T08:53:04.304Z,91918.00
2022-08-21T08:55:39.865Z,91912.38
2022-08-21T08:58:07.342Z,91901.06
2022-08-21T09:00:34.249Z,91898.28
2022-08-21T09:03:02.905Z,91899.59
2022-08-21T09:05:44.438Z,91892.56
2022-08-21T09:08:25.459Z,91895.38
2022-08-21T09:10:51.915Z,91893.88
2022-08-21T09:13:30.514Z,91882.69
2022-08-21T09:16:28.555Z,91883.44
2022-08-21T09:19:26.261Z,91873.69
2022-08-21T09:22:21.143Z,91868.81
2022-08-21T09:25:01.919Z,91870.16
2022-08-21T09:27:30.920Z,91866.63
2022-08-21T09:29:58.905Z,91858.97
2022-08-21T09:32:36.899Z,91857.50
2022-08-21T09:35:14.185Z,91855.31
2022-08-21T09:38:07.431Z,91853.25
2022-08-21T09:40:36.915Z,91857.41
2022-08-21T09:43:18.215Z,91851.09
2022-08-21T09:45:46.568Z,91849.72
2022-08-21T09:48:27.014Z,91844.75
2022-08-21T09:50:54.866Z,91839.16
2022-08-21T09:53:32.579Z,91850.34
2022-08-21T09:56:25.112Z,91848.91
2022-08-21T09:58:52.515Z,91839.03
2022-08-21T10:01:21.984Z,91851.72
2022-08-21T10:03:50.677Z,91841.09
2022-08-21T10:06:29.076Z,91841.84
2022-08-21T10:09:05.070Z,91838.94
2022-08-21T10:11:33.090Z,91843.19
2022-08-21T10:14:02.646Z,91844.53
2022-08-21T10:16:55.614Z,91845.88
2022-08-21T10:19:33.186Z,91836.84
2022-08-21T10:22:18.540Z,91833.31
2022-08-21T10:25:03.097Z,91833.31
2022-08-21T10:27:48.215Z,91826.28
2022-08-21T10:30:22.460Z,91826.28
2022-08-21T10:33:07.294Z,91826.28
2022-08-21T10:36:00.881Z,91827.72
2022-08-21T10:39:17.463Z,91826.41
2022-08-21T10:42:04.523Z,91812.41
2022-08-21T10:44:57.396Z,91811.78
2022-08-21T10:47:30.307Z,91813.84
2022-08-21T10:50:02.783Z,91816.88
2022-08-21T10:52:54.067Z,91815.50
2022-08-21T10:55:26.683Z,91815.50
2022-08-21T10:57:59.269Z,91812.81
2022-08-21T11:00:34.700Z,91808.69
2022-08-21T11:03:11.801Z,91804.53
2022-08-21T11:05:50.126Z,91798.94
2022-08-21T11:08:40.550Z,91801.84
2022-08-21T11:11:31.061Z,91794.06
2022-08-21T11:14:12.826Z,91798.31
2022-08-21T11:16:47.319Z,91799.03
2022-08-21T11:19:20.330Z,91790.66
2022-08-21T11:21:53.424Z,91800.47
2022-08-21T11:25:14.211Z,91787.97
2022-08-21T11:27:46.174Z,91785.16
2022-08-21T11:30:13.675Z,91783.78
2022-08-21T11:33:17.075Z,91778.19
2022-08-21T11:35:50.160Z,91778.09
2022-08-21T11:38:25.908Z,91780.81
2022-08-21T11:41:04.348Z,91772.41
2022-08-21T11:43:46.457Z,91769.69
2022-08-21T11:46:15.594Z,91766.19
2022-08-21T11:48:45.180Z,91766.88
2022-08-21T11:51:16.206Z,91764.09
2022-08-21T11:54:07.218Z,91756.44
2022-08-21T11:56:43.346Z,91755.91
2022-08-21T11:59:17.687Z,91754.56
2022-08-21T12:01:47.002Z,91753.94
2022-08-21T12:04:36.304Z,91751.97
2022-08-21T12:07:35.148Z,91749.16
2022-08-21T12:10:05.134Z,91735.78
2022-08-21T12:12:34.992Z,91739.22
2022-08-21T12:15:21.791Z,91737.03
2022-08-21T12:18:07.116Z,91739.75
2022-08-21T12:20:38.330Z,91739.00
2022-08-21T12:23:13.115Z,91730.50
2022-08-21T12:25:44.724Z,91723.47
2022-08-21T12:28:14.346Z,91717.13
2022-08-21T12:30:44.482Z,91715.69
2022-08-21T12:33:29.787Z,91714.94
2022-08-21T12:36:08.935Z,91714.22
2022-08-21T12:38:55.127Z,91716.31
2022-08-21T12:41:28.479Z,91712.03
2022-08-21T12:44:13.657Z,91699.50
2022-08-21T12:46:47.242Z,91699.41
2022-08-21T12:49:26.838Z,91699.41
2022-08-21T12:52:02.616Z,91686.75
2022-08-21T12:54:37.886Z,91686.75
2022-08-21T12:57:06.351Z,91685.31
2022-08-21T12:59:37.685Z,91680.44
2022-08-21T13:02:13.425Z,91674.09
2022-08-21T13:04:42.229Z,91678.28
2022-08-21T13:07:13.300Z,91675.47
2022-08-21T13:09:50.450Z,91676.91
2022-08-21T13:12:20.400Z,91672.66
2022-08-21T13:14:49.601Z,91671.94
2022-08-21T13:17:25.548Z,91667.06
2022-08-21T13:20:11.331Z,91667.06
2022-08-21T13:22:45.119Z,91664.28
2022-08-21T13:25:18.340Z,91665.59
2022-08-21T13:27:57.294Z,91657.22
2022-08-21T13:30:24.567Z,91653.69
2022-08-21T13:32:52.608Z,91655.13
2022-08-21T13:35:24.847Z,91654.41
2022-08-21T13:37:52.979Z,91654.41
2022-08-21T13:40:55.048Z,91659.28
2022-08-21T13:43:28.153Z,91657.22
2022-08-21T13:45:56.211Z,91652.97
2022-08-21T13:48:27.224Z,91641.78
2022-08-21T13:50:53.917Z,91647.38
2022-08-21T13:53:28.393Z,91641.78
2022-08-21T13:55:59.989Z,91640.31
2022-08-21T13:58:42.312Z,91636.19
2022-08-21T14:01:23.479Z,91636.19
2022-08-21T14:03:53.119Z,91640.31
2022-08-21T14:06:23.210Z,91634.72
2022-08-21T14:08:54.487Z,91630.56
2022-08-21T14:11:21.847Z,91633.28
2022-08-21T14:14:31.224Z,91629.09
2022-08-21T14:17:24.019Z,91631.91
2022-08-21T14:19:50.905Z,91623.50
2022-08-21T14:22:23.830Z,91627.66
2022-08-21T14:24:55.200Z,91630.47
2022-08-21T14:27:24.198Z,91623.50
2022-08-21T14:29:50.827Z,91623.50
2022-08-21T14:32:25.348Z,91620.81
2022-08-21T14:34:54.933Z,91618.13
2022-08-21T14:37:22.334Z,91608.38
2022-08-21T14:39:48.869Z,91611.28
2022-08-21T14:42:15.478Z,91615.53
2022-08-21T14:44:42.193Z,91609.19
2022-08-21T14:47:10.384Z,91612.72
2022-08-21T14:49:37.122Z,91615.63
2022-08-21T14:52:03.983Z,91601.63
2022-08-21T14:54:32.495Z,91605.88
2022-08-21T14:57:10.784Z,91601.72
2022-08-21T14:59:38.807Z,91603.19
2022-08-21T15:02:06.367Z,91596.22
2022-08-21T15:04:33.900Z,91597.69
2022-08-21T15:07:00.533Z,91598.41
2022-08-21T15:09:27.155Z,91601.94
2022-08-21T15:11:57.913Z,91599.84
2022-08-21T15:14:28.567Z,91602.66
2022-08-21T15:16:55.129Z,91603.38
2022-08-21T15:19:22.285Z,91601.94
2022-08-21T15:21:48.814Z,91602.66
2022-08-21T15:24:15.814Z,91609.00
2022-08-21T15:26:43.728Z,91603.38
2022-08-21T15:29:10.279Z,91603.38
2022-08-21T15:31:37.494Z,91607.53
2022-08-21T15:34:04.117Z,91609.00
2022-08-21T15:36:30.713Z,91603.38
2022-08-21T15:38:57.303Z,91606.19
2022-08-21T15:41:23.926Z,91609.00
2022-08-21T15:43:52.851Z,91604.81
2022-08-21T15:46:21.141Z,91599.22
2022-08-21T15:48:48.425Z,91603.38
2022-08-21T15:51:16.817Z,91604.81
2022-08-21T15:53:44.284Z,91604.81
2022-08-21T15:56:35.866Z,91607.63
2022-08-21T15:59:13.299Z,91610.44
2022-08-21T16:01:44.236Z,91608.34
2022-08-21T16:04:19.222Z,91611.88
2022-08-21T16:06:55.389Z,91611.88
2022-08-21T16:09:24.014Z,91605.56
2022-08-21T16:11:50.811Z,91606.25
2022-08-21T16:14:18.417Z,91611.88
2022-08-21T16:16:45.393Z,91611.88
2022-08-21T16:19:13.692Z,91611.88
2022-08-21T16:21:40.278Z,91611.88
2022-08-21T16:24:07.222Z,91617.47
2022-08-21T16:26:34.088Z,91611.88
2022-08-21T16:29:02.799Z,91621.63
2022-08-21T16:31:29.435Z,91625.78
2022-08-21T16:33:57.963Z,91622.34
2022-08-21T16:36:26.606Z,91622.34
2022-08-21T16:38:55.092Z,91621.63
2022-08-21T16:41:24.063Z,91626.50
2022-08-21T16:43:51.868Z,91623.06
2022-08-21T16:46:20.627Z,91631.47
2022-08-21T16:48:47.676Z,91634.25
2022-08-21T16:51:15.334Z,91639.88
2022-08-21T16:53:42.928Z,91638.53
2022-08-21T16:56:12.208Z,91639.88
2022-08-21T16:58:42.583Z,91645.47
2022-08-21T17:01:13.026Z,91642.78
2022-08-21T17:03:42.444Z,91641.31
2022-08-21T17:06:10.301Z,91637.16
2022-08-21T17:08:37.351Z,91642.06
2022-08-21T17:11:07.595Z,91652.53
2022-08-21T17:13:34.796Z,91637.16
2022-08-21T17:16:01.292Z,91638.63
2022-08-21T17:18:28.197Z,91651.28
2022-08-21T17:20:54.754Z,91649.84
2022-08-21T17:23:21.675Z,91648.59
2022-08-21T17:25:50.942Z,91657.09
2022-08-21T17:28:25.314Z,91649.53
2022-08-21T17:30:54.287Z,91654.50
2022-08-21T17:33:22.454Z,91653.16
2022-08-21T17:35:49.027Z,91658.03
2022-08-21T17:38:15.559Z,91665.09
2022-08-21T17:40:42.765Z,91664.47
2022-08-21T17:43:12.924Z,91663.03
2022-08-21T17:45:40.380Z,91667.25
2022-08-21T17:48:07.042Z,91681.25
2022-08-21T17:50:33.758Z,91674.41
2022-08-21T17:53:00.508Z,91689.88
2022-08-21T17:55:29.388Z,91688.50
2022-08-21T17:57:57.222Z,91691.31
2022-08-21T18:00:25.808Z,91689.34
2022-08-21T18:03:02.824Z,91687.88
2022-08-21T18:05:29.570Z,91686.56
2022-08-21T18:07:56.527Z,91694.22
2022-08-21T18:10:23.978Z,91698.38
2022-08-21T18:12:50.960Z,91698.38
2022-08-21T18:15:18.904Z,91705.41
2022-08-21T18:17:48.456Z,91706.88
2022-08-21T18:20:18.686Z,91713.09
2022-08-21T18:22:46.075Z,91713.72
2022-08-21T18:25:13.106Z,91718.59
2022-08-21T18:27:42.647Z,91727.72
2022-08-21T18:30:10.486Z,91722.13
2022-08-21T18:32:37.198Z,91731.16
2022-08-21T18:35:05.575Z,91737.38
2022-08-21T18:37:32.227Z,91738.13
2022-08-21T18:39:58.969Z,91734.59
2022-08-21T18:42:28.530Z,91748.59
2022-08-21T18:45:01.967Z,91742.97
2022-08-21T18:47:37.116Z,91744.41
2022-08-21T18:50:05.972Z,91751.50
2022-08-21T18:52:38.218Z,91751.50
2022-08-21T18:55:13.521Z,91755.72
2022-08-21T18:57:42.299Z,91752.94
2022-08-21T19:00:23.259Z,91758.53
2022-08-21T19:02:50.852Z,91762.69
2022-08-21T19:05:19.136Z,91768.28
2022-08-21T19:07:46.924Z,91758.44
2022-08-21T19:10:24.499Z,91766.13
2022-08-21T19:12:54.656Z,91762.69
2022-08-21T19:15:23.233Z,91762.69
2022-08-21T19:17:51.420Z,91762.69
2022-08-21T19:20:29.428Z,91773.91
2022-08-21T19:22:56.699Z,91780.22
2022-08-21T19:25:33.046Z,91775.34
2022-08-21T19:28:03.108Z,91780.94
2022-08-21T19:30:30.871Z,91780.94
2022-08-21T19:32:57.767Z,91780.94
2022-08-21T19:35:24.442Z,91782.31
2022-08-21T19:37:51.312Z,91785.09
2022-08-21T19:40:19.198Z,91787.91
2022-08-21T19:42:49.095Z,91781.66
2022-08-21T19:45:16.148Z,91790.19
2022-08-21T19:47:48.299Z,91787.38
2022-08-21T19:53:02.329Z,91789.22
2022-08-21T19:55:29.066Z,91787.78
2022-08-21T19:57:55.974Z,91790.50
2022-08-21T20:00:22.923Z,91791.75
2022-08-21T20:02:50.713Z,91795.16
2022-08-21T20:05:18.270Z,91787.38
2022-08-21T20:07:46.050Z,91781.06
2022-08-21T20:10:13.095Z,91788.00
2022-08-21T20:12:41.094Z,91784.47
2022-08-21T20:15:08.797Z,91793.47
2022-08-21T20:17:35.921Z,91795.53
2022-08-21T20:20:03.640Z,91796.88
2022-08-21T20:22:30.200Z,91792.63
2022-08-21T20:24:56.731Z,91803.84
2022-08-21T20:27:27.425Z,91799.56
2022-08-21T20:29:54.747Z,91799.56
2022-08-21T20:35:12.506Z,91804.47
2022-08-21T20:37:40.254Z,91803.00
2022-08-21T20:40:11.016Z,91807.84
2022-08-21T20:42:45.474Z,91813.47
2022-08-21T20:45:12.478Z,91806.41
2022-08-21T20:47:40.031Z,91812.00
2022-08-21T20:50:13.765Z,91806.41
2022-08-21T20:52:41.600Z,91804.97
2022-08-21T20:55:15.206Z,91809.09
2022-08-21T20:58:13.730Z,91817.50
2022-08-21T21:00:43.365Z,91811.91
2022-08-21T21:03:21.254Z,91809.09
2022-08-21T21:06:05.050Z,91821.03
2022-08-21T21:08:37.545Z,91812.63
2022-08-21T21:11:13.793Z,91818.88
2022-08-21T21:13:53.363Z,91818.88
2022-08-21T21:16:28.022Z,91818.13
2022-08-21T21:19:13.234Z,91830.06
2022-08-21T21:21:51.713Z,91828.59
2022-08-21T21:24:29.054Z,91825.78
2022-08-21T21:27:11.815Z,91820.81
2022-08-21T21:29:51.823Z,91823.63
2022-08-21T21:32:19.236Z,91827.16
2022-08-21T21:34:47.004Z,91834.09
2022-08-21T21:37:48.018Z,91826.41
2022-08-21T21:40:35.140Z,91836.88
2022-08-21T21:43:08.867Z,91829.84
2022-08-21T21:45:58.017Z,91829.84
2022-08-21T21:48:58.222Z,91842.47
2022-08-21T21:51:55.785Z,91840.31
2022-08-21T21:55:01.239Z,91845.19
2022-08-21T21:58:03.710Z,91841.03
2022-08-21T22:00:35.587Z,91852.25
2022-08-21T22:03:28.828Z,91845.91
2022-08-21T22:06:04.571Z,91852.88
2022-08-21T22:09:10.325Z,91849.31
2022-08-21T22:12:06.388Z,91850.78
2022-08-21T22:14:38.108Z,91849.31
2022-08-21T22:17:28.440Z,91849.31
2022-08-21T22:19:57.499Z,91849.31
2022-08-21T22:22:27.179Z,91843.72
2022-08-21T22:24:59.222Z,91847.88
2022-08-21T22:27:30.997Z,91847.88
2022-08-21T22:30:03.886Z,91849.31
2022-08-21T22:32:45.650Z,91854.19
2022-08-21T22:35:15.549Z,91859.09
2022-08-21T22:37:50.121Z,91854.94
2022-08-21T22:40:29.106Z,91860.53
2022-08-21T22:43:21.467Z,91870.28
2022-08-21T22:46:05.896Z,91867.47
2022-08-21T22:48:36.458Z,91872.34
2022-08-21T22:54:23.480Z,91864.69
2022-08-21T22:57:01.871Z,91861.88
2022-08-21T22:59:34.860Z,91857.63
2022-08-21T23:02:17.961Z,91868.09
2022-08-21T23:04:48.317Z,91863.22
2022-08-21T23:07:34.129Z,91849.22
2022-08-21T23:10:02.015Z,91862.50
2022-08-21T23:12:43.785Z,91857.63
2022-08-21T23:15:18.182Z,91863.94
2022-08-21T23:17:53.071Z,91861.78
2022-08-21T23:20:56.509Z,91867.38
2022-08-21T23:23:30.723Z,91865.31
2022-08-21T23:26:04.527Z,91862.50
2022-08-21T23:29:09.340Z,91861.78
2022-08-21T23:31:41.222Z,91867.38
2022-08-21T23:34:26.931Z,91875.75
2022-08-21T23:40:47.038Z,91867.38
2022-08-21T23:43:37.400Z,91877.09
2022-08-21T23:46:40.551Z,91877.84
2022-08-21T23:49:44.247Z,91877.09
2022-08-21T23:52:43.763Z,91882.69
2022-08-21T23:55:31.633Z,91885.50
2022-08-21T23:58:32.423Z,91884.06
